Time;durP1;ratioP1;P1;durP2;ratioP2;P2;SDS_P1;SDS_P2;PMS_P1;PMS_P2;Temp;Humidity;BMP_temperature;BMP_pressure;BME280_temperature;BME280_humidity;BME280_pressure;Samples;Min_cycle;Max_cycle;Signal;HPM_P1;HPM_P2
2021/03/17 00:01:29;;;;;;;44.15;29.28;;;;;;;5.77;62.24;98727.45;252794;1150;114777;-67
2021/03/17 00:06:50;;;;;;;48.07;28.40;;;;;;;5.85;62.77;98723.53;252779;1144;114889;-67
2021/03/17 00:12:11;;;;;;;48.50;31.65;;;;;;;5.89;62.16;98714.53;252590;1151;115009;-67
2021/03/17 00:17:32;;;;;;;42.67;29.80;;;;;;;5.92;62.35;98713.53;252731;1144;115869;-67
2021/03/17 00:22:55;;;;;;;47.73;30.08;;;;;;;5.92;62.90;98701.21;252724;1151;114385;-67
2021/03/17 00:28:16;;;;;;;45.35;29.20;;;;;;;5.89;62.64;98708.39;252730;1144;114948;-66
2021/03/17 00:33:37;;;;;;;42.48;29.18;;;;;;;5.80;62.31;98717.60;252527;1151;115222;-66
2021/03/17 00:38:58;;;;;;;43.70;28.63;;;;;;;5.75;61.80;98711.70;252504;1144;114484;-66
2021/03/17 00:44:19;;;;;;;40.80;28.03;;;;;;;5.73;62.85;98705.63;252230;1151;114835;-66
2021/03/17 00:49:40;;;;;;;40.35;26.90;;;;;;;5.69;62.47;98709.34;252317;1144;115126;-66
2021/03/17 00:54:42;;;;;;;41.23;27.60;;;;;;;5.65;62.60;98718.34;251921;1152;115276;-70
2021/03/17 01:00:11;;;;;;;41.30;26.75;;;;;;;5.62;62.42;98715.84;251984;1144;114772;-63
2021/03/17 01:05:14;;;;;;;43.68;28.83;;;;;;;5.60;62.36;98717.69;252335;1150;115847;-64
2021/03/17 01:10:26;;;;;;;39.40;25.35;;;;;;;5.63;61.98;98720.19;251890;1144;114710;-68
2021/03/17 01:15:28;;;;;;;40.15;27.35;;;;;;;5.73;62.58;98710.91;251939;1146;115205;-69
2021/03/17 01:20:32;;;;;;;38.70;26.35;;;;;;;5.84;62.49;98713.03;251920;1146;115666;-69
2021/03/17 01:25:37;;;;;;;38.48;26.15;;;;;;;5.87;62.62;98716.38;252028;1151;115531;-67
2021/03/17 01:30:45;;;;;;;40.23;26.33;;;;;;;5.82;61.99;98710.48;251877;1144;115444;-75
2021/03/17 01:35:49;;;;;;;37.93;25.33;;;;;;;5.76;62.06;98716.05;251860;1146;115403;-66
2021/03/17 01:40:53;;;;;;;36.27;25.63;;;;;;;5.71;62.36;98715.42;251883;1145;115381;-67
2021/03/17 01:45:55;;;;;;;36.83;24.28;;;;;;;5.64;61.97;98709.58;252108;1151;115226;-68
2021/03/17 01:50:59;;;;;;;39.73;25.60;;;;;;;5.60;62.60;98707.98;251869;1146;115052;-69
2021/03/17 01:56:03;;;;;;;36.73;25.00;;;;;;;5.54;62.03;98712.73;252124;1151;116049;-67
2021/03/17 02:01:07;;;;;;;37.43;26.10;;;;;;;5.50;61.87;98713.77;252042;1144;114922;-67
2021/03/17 02:06:10;;;;;;;40.60;25.77;;;;;;;5.46;61.95;98705.99;251952;1144;116890;-66
2021/03/17 02:11:13;;;;;;;38.40;25.38;;;;;;;5.46;62.42;98713.91;251868;1146;114857;-67
2021/03/17 02:16:34;;;;;;;42.60;28.07;;;;;;;5.44;62.22;98713.14;251618;1152;115718;-71
2021/03/17 02:22:30;;;;;;;39.05;25.03;;;;;;;5.47;62.19;98712.16;251883;1145;114788;-66
2021/03/17 02:27:55;;;;;;;41.23;27.93;;;;;;;5.53;62.48;98714.48;251729;1152;115189;-68
2021/03/17 02:33:31;;;;;;;39.00;26.00;;;;;;;5.56;62.72;98711.70;251911;1144;114894;-66
2021/03/17 02:38:37;;;;;;;39.88;26.83;;;;;;;5.58;62.73;98701.94;252035;1144;115394;-68
2021/03/17 02:43:42;;;;;;;39.90;26.10;;;;;;;5.58;62.00;98709.01;251909;1146;115050;-68
2021/03/17 02:48:48;;;;;;;39.58;26.53;;;;;;;5.59;62.74;98694.88;251920;1145;115060;-68
2021/03/17 02:53:52;;;;;;;38.28;25.03;;;;;;;5.50;62.60;98696.15;251889;1146;114750;-68
2021/03/17 02:58:54;;;;;;;41.95;29.08;;;;;;;5.46;62.37;98705.14;251949;1144;114757;-68
2021/03/17 03:03:59;;;;;;;42.13;27.20;;;;;;;5.44;61.91;98705.23;252000;1144;115112;-68
2021/03/17 03:09:05;;;;;;;42.60;27.18;;;;;;;5.39;62.62;98707.20;251867;1146;114879;-70
2021/03/17 03:14:07;;;;;;;43.03;28.57;;;;;;;5.37;62.76;98690.61;251936;1144;114962;-70
2021/03/17 03:19:10;;;;;;;42.87;27.93;;;;;;;5.39;63.10;98696.66;251909;1144;115161;-66
2021/03/17 03:24:14;;;;;;;46.17;29.23;;;;;;;5.43;62.77;98698.25;251886;1144;114856;-66
2021/03/17 03:29:17;;;;;;;43.73;27.65;;;;;;;5.49;62.58;98709.43;251950;1144;114948;-68
2021/03/17 03:34:21;;;;;;;42.60;28.10;;;;;;;5.56;63.09;98710.85;251921;1146;115085;-69
2021/03/17 03:39:23;;;;;;;45.30;29.50;;;;;;;5.60;62.95;98712.41;251717;1152;115518;-69
2021/03/17 03:44:26;;;;;;;40.60;27.70;;;;;;;5.62;63.03;98713.20;252034;1146;114769;-68
2021/03/17 03:49:29;;;;;;;41.97;26.97;;;;;;;5.62;62.75;98706.14;251970;1152;114954;-69
2021/03/17 03:54:38;;;;;;;41.95;28.20;;;;;;;5.60;62.94;98718.54;251954;1145;114972;-69
2021/03/17 03:59:47;;;;;;;46.07;30.10;;;;;;;5.58;62.26;98714.28;252045;1151;115353;-68
2021/03/17 04:04:50;;;;;;;44.83;29.67;;;;;;;5.54;62.38;98723.28;252011;1144;116296;-69
2021/03/17 04:09:57;;;;;;;45.50;29.68;;;;;;;5.50;62.22;98722.54;252003;1145;114722;-69
2021/03/17 04:15:00;;;;;;;47.13;29.05;;;;;;;5.52;62.82;98719.84;251995;1146;115495;-70
2021/03/17 04:20:11;;;;;;;46.90;29.65;;;;;;;5.49;62.96;98707.64;251927;1152;114835;-69
2021/03/17 04:25:15;;;;;;;44.68;30.55;;;;;;;5.46;62.75;98708.63;252078;1144;114949;-69
2021/03/17 04:30:26;;;;;;;42.43;27.73;;;;;;;5.46;62.22;98711.27;251952;1152;114873;-68
2021/03/17 04:35:29;;;;;;;46.60;30.70;;;;;;;5.41;61.89;98725.63;252159;1144;114864;-68
2021/03/17 04:40:31;;;;;;;45.37;28.60;;;;;;;5.41;62.64;98722.98;252010;1152;114842;-68
2021/03/17 04:45:34;;;;;;;49.00;30.05;;;;;;;5.35;62.63;98728.55;251959;1145;115128;-71
2021/03/17 04:50:38;;;;;;;46.53;30.40;;;;;;;5.31;62.65;98729.61;252063;1151;114990;-72
2021/03/17 04:55:41;;;;;;;33.63;22.45;;;;;;;5.29;62.08;98726.17;252180;1144;115975;-70
2021/03/17 05:00:46;;;;;;;47.60;30.33;;;;;;;5.28;62.53;98738.52;252204;1151;115231;-70
2021/03/17 05:05:52;;;;;;;49.07;32.10;;;;;;;5.28;62.55;98738.52;252044;1146;114813;-70
2021/03/17 05:10:55;;;;;;;52.80;31.40;;;;;;;5.29;62.96;98734.09;251957;1153;115122;-68
2021/03/17 05:15:58;;;;;;;46.68;28.95;;;;;;;5.24;62.69;98736.09;252099;1144;115240;-71
2021/03/17 05:21:03;;;;;;;44.25;28.58;;;;;;;5.19;62.52;98738.92;252197;1151;114984;-70
2021/03/17 05:26:05;;;;;;;44.60;29.50;;;;;;;5.12;62.54;98738.34;251959;1146;114922;-70
2021/03/17 05:31:09;;;;;;;47.80;29.25;;;;;;;5.08;62.97;98738.55;252012;1151;114888;-70
2021/03/17 05:36:12;;;;;;;49.25;31.00;;;;;;;5.09;62.65;98735.84;251927;1146;114833;-67
2021/03/17 05:41:15;;;;;;;48.13;28.78;;;;;;;5.15;63.08;98742.63;251923;1144;114884;-70
2021/03/17 05:46:18;;;;;;;48.38;31.78;;;;;;;5.20;62.88;98752.06;252012;1144;115060;-72
2021/03/17 05:51:21;;;;;;;47.23;29.87;;;;;;;5.31;63.35;98745.44;252012;1152;115171;-70
2021/03/17 05:56:26;;;;;;;47.13;28.85;;;;;;;5.40;62.91;98747.64;251902;1146;115549;-71
2021/03/17 06:01:33;;;;;;;51.80;28.03;;;;;;;5.43;62.62;98755.42;251942;1152;115014;-71
2021/03/17 06:06:38;;;;;;;;;;;;;;;5.41;62.83;98755.50;252064;1144;114954;-71
2021/03/17 06:11:41;;;;;;;41.00;25.58;;;;;;;5.36;62.14;98753.98;252243;1144;101586;-70
2021/03/17 06:16:44;;;;;;;41.43;25.73;;;;;;;5.34;62.42;98758.50;251943;1144;117195;-68
2021/03/17 06:21:47;;;;;;;43.48;27.28;;;;;;;5.33;62.48;98772.59;251910;1146;115711;-70
2021/03/17 06:26:50;;;;;;;44.35;27.60;;;;;;;5.35;62.88;98765.48;251901;1146;114854;-67
2021/03/17 06:31:52;;;;;;;44.18;26.68;;;;;;;5.32;62.30;98778.81;252011;1144;115421;-66
2021/03/17 06:36:55;;;;;;;45.85;26.88;;;;;;;5.33;62.92;98786.67;251909;1147;115827;-66
2021/03/17 06:41:57;;;;;;;44.17;26.67;;;;;;;5.35;63.01;98784.80;251982;1152;114712;-67
2021/03/17 06:47:21;;;;;;;49.68;28.08;;;;;;;5.41;63.20;98787.17;252090;1144;115079;-67
2021/03/17 06:52:39;;;;;;;40.93;26.85;;;;;;;5.53;63.28;98785.74;252036;1144;114565;-67
2021/03/17 06:57:46;;;;;;;41.47;26.67;;;;;;;5.69;63.06;98788.55;251936;1146;115264;-66
2021/03/17 07:02:53;;;;;;;40.10;25.08;;;;;;;5.80;62.33;98782.77;252006;1144;115706;-66
2021/03/17 07:07:57;;;;;;;41.38;25.98;;;;;;;5.84;62.42;98790.48;252022;1144;115006;-66
2021/03/17 07:13:01;;;;;;;38.28;24.30;;;;;;;5.91;62.53;98797.19;252193;1151;114617;-66
2021/03/17 07:18:19;;;;;;;42.88;25.90;;;;;;;5.93;62.55;98800.63;252009;1147;114982;-67
2021/03/17 07:23:41;;;;;;;34.63;22.43;;;;;;;5.93;62.63;98810.34;251904;1152;116058;-68
2021/03/17 07:28:56;;;;;;;36.58;22.70;;;;;;;5.92;62.02;98813.89;252069;1146;114756;-67
2021/03/17 07:34:10;;;;;;;32.83;22.10;;;;;;;5.89;61.82;98812.24;251930;1151;114928;-65
2021/03/17 07:39:16;;;;;;;36.38;21.95;;;;;;;5.89;62.02;98814.88;252078;1144;114864;-65
2021/03/17 07:44:20;;;;;;;34.48;21.80;;;;;;;5.90;62.26;98816.58;252011;1152;114819;-68
2021/03/17 07:49:26;;;;;;;32.30;20.10;;;;;;;5.99;62.55;98822.42;251928;1145;115387;-70
2021/03/17 07:54:31;;;;;;;29.15;19.00;;;;;;;6.07;61.48;98823.75;251915;1152;115308;-69
2021/03/17 07:59:35;;;;;;;29.85;19.18;;;;;;;6.09;61.74;98827.19;251984;1146;114987;-67
2021/03/17 08:04:38;;;;;;;28.75;19.05;;;;;;;6.09;61.56;98821.91;251968;1146;115002;-66
2021/03/17 08:09:40;;;;;;;30.00;20.23;;;;;;;6.09;61.95;98832.47;252227;1144;114949;-67
2021/03/17 08:14:43;;;;;;;27.70;18.10;;;;;;;6.16;61.95;98838.33;252114;1150;115097;-68
2021/03/17 08:19:45;;;;;;;26.45;16.65;;;;;;;6.18;61.10;98832.95;251744;1146;114959;-70
2021/03/17 08:24:49;;;;;;;25.88;15.98;;;;;;;6.17;61.80;98845.31;251965;1152;114879;-67
2021/03/17 08:30:08;;;;;;;23.80;15.90;;;;;;;6.18;60.88;98846.16;252252;1144;116441;-67
2021/03/17 08:35:11;;;;;;;24.95;16.15;;;;;;;6.25;61.52;98852.87;252348;1144;114915;-67
2021/03/17 08:40:28;;;;;;;25.25;15.10;;;;;;;6.26;61.47;98862.53;252007;1146;114744;-68
2021/03/17 08:45:42;;;;;;;20.88;12.43;;;;;;;6.31;60.71;98863.16;251991;1145;114903;-67
2021/03/17 08:50:48;;;;;;;25.50;14.60;;;;;;;6.28;60.53;98852.73;252029;1145;115239;-68
2021/03/17 08:55:51;;;;;;;22.35;13.10;;;;;;;6.32;60.84;98867.53;251963;1152;115091;-66
2021/03/17 09:00:56;;;;;;;24.00;15.28;;;;;;;6.40;60.45;98865.38;250199;1152;115213;-67
2021/03/17 09:06:09;;;;;;;23.83;14.47;;;;;;;6.44;60.83;98856.36;251902;1152;115160;-66
2021/03/17 09:11:32;;;;;;;24.65;13.83;;;;;;;6.54;61.00;98865.55;252194;1144;114919;-68
2021/03/17 09:16:56;;;;;;;22.57;13.97;;;;;;;6.57;60.30;98864.56;251363;1151;115154;-64
2021/03/17 09:21:59;;;;;;;21.53;12.55;;;;;;;6.61;59.79;98860.83;251888;1152;115034;-63
2021/03/17 09:27:08;;;;;;;20.73;13.27;;;;;;;6.68;60.22;98862.23;251934;1145;114610;-65
2021/03/17 09:32:11;;;;;;;20.38;13.55;;;;;;;6.70;59.44;98872.75;251973;1144;115660;-65
2021/03/17 09:37:14;;;;;;;22.03;13.13;;;;;;;6.71;59.10;98877.95;251958;1144;115476;-66
2021/03/17 09:42:18;;;;;;;20.90;12.43;;;;;;;6.82;59.01;98874.78;251706;1144;115328;-66
2021/03/17 09:47:29;;;;;;;23.85;12.43;;;;;;;6.92;59.06;98864.61;251945;1144;114967;-65
2021/03/17 09:52:32;;;;;;;22.33;11.83;;;;;;;7.01;58.97;98870.30;251974;1144;114661;-65
2021/03/17 09:57:34;;;;;;;18.73;12.18;;;;;;;6.96;58.38;98874.09;252334;1151;115126;-69
2021/03/17 10:02:37;;;;;;;20.47;10.93;;;;;;;7.07;58.87;98874.44;252005;1144;115190;-65
2021/03/17 10:07:40;;;;;;;22.85;13.35;;;;;;;7.17;58.53;98877.44;251985;1152;114700;-64
2021/03/17 10:12:43;;;;;;;25.93;15.58;;;;;;;7.20;58.41;98880.82;252243;1144;115469;-65
2021/03/17 10:17:49;;;;;;;22.38;13.33;;;;;;;7.20;58.39;98874.64;252056;1152;116119;-66
2021/03/17 10:22:56;;;;;;;22.35;13.73;;;;;;;7.31;59.04;98890.86;251943;1144;115332;-65
2021/03/17 10:28:05;;;;;;;23.90;13.98;;;;;;;7.28;58.18;98885.72;252072;1152;115364;-65
2021/03/17 10:33:10;;;;;;;22.73;12.23;;;;;;;7.44;58.05;98875.17;249493;1144;115420;-66
2021/03/17 10:38:14;;;;;;;23.65;12.98;;;;;;;7.71;58.54;98880.81;251246;1144;114790;-64
2021/03/17 10:43:31;;;;;;;31.63;13.43;;;;;;;7.78;57.63;98883.08;252174;1145;115378;-66
2021/03/17 10:48:33;;;;;;;25.43;14.63;;;;;;;7.77;57.39;98876.05;251948;1153;115568;-64
2021/03/17 10:53:36;;;;;;;22.33;12.57;;;;;;;7.81;57.14;98872.33;252066;1146;114871;-66
2021/03/17 10:58:40;;;;;;;19.00;11.20;;;;;;;7.89;57.13;98871.05;251997;1152;115699;-66
2021/03/17 11:03:42;;;;;;;16.85;10.00;;;;;;;8.00;56.65;98868.67;251999;1146;114837;-65
2021/03/17 11:09:03;;;;;;;16.15;8.65;;;;;;;7.97;55.72;98863.53;251955;1153;114837;-65
2021/03/17 11:14:06;;;;;;;14.80;8.33;;;;;;;8.19;56.14;98856.13;251479;1145;115016;-65
2021/03/17 11:19:11;;;;;;;15.90;8.97;;;;;;;8.32;56.04;98868.69;251967;1144;115050;-66
2021/03/17 11:24:19;;;;;;;13.50;8.55;;;;;;;8.33;55.87;98858.02;251898;1146;114944;-65
2021/03/17 11:29:26;;;;;;;15.43;9.45;;;;;;;8.34;55.25;98853.56;251949;1145;114746;-67
2021/03/17 11:34:29;;;;;;;14.37;8.73;;;;;;;8.30;54.87;98861.69;252176;1144;114861;-66
2021/03/17 11:39:31;;;;;;;14.68;7.78;;;;;;;8.27;55.05;98858.35;252070;1151;115023;-67
2021/03/17 11:44:34;;;;;;;13.38;8.43;;;;;;;8.22;54.72;98863.92;251926;1147;115057;-66
2021/03/17 11:49:36;;;;;;;15.13;7.90;;;;;;;8.17;54.71;98854.50;251940;1144;114652;-66
2021/03/17 11:54:41;;;;;;;15.80;8.37;;;;;;;8.02;54.22;98854.41;251917;1144;114577;-70
2021/03/17 11:59:44;;;;;;;14.05;8.08;;;;;;;7.89;54.83;98857.81;252304;1151;114711;-66
2021/03/17 12:04:47;;;;;;;17.47;8.93;;;;;;;7.79;54.32;98875.98;251961;1146;115268;-67
2021/03/17 12:09:50;;;;;;;14.00;8.33;;;;;;;7.76;54.58;98876.14;251985;1152;114885;-66
2021/03/17 12:14:54;;;;;;;15.43;8.53;;;;;;;7.61;54.51;98880.47;251885;1145;114775;-66
2021/03/17 12:19:57;;;;;;;15.78;9.15;;;;;;;7.58;54.28;98880.63;251893;1152;114926;-66
2021/03/17 12:24:59;;;;;;;12.23;8.00;;;;;;;7.71;54.77;98875.52;251859;1146;114746;-65
2021/03/17 12:30:03;;;;;;;14.15;8.85;;;;;;;7.85;54.38;98882.77;252217;1151;114653;-66
2021/03/17 12:35:08;;;;;;;18.88;9.88;;;;;;;7.74;53.81;98891.25;252450;1144;114896;-67
2021/03/17 12:40:14;;;;;;;15.73;10.55;;;;;;;7.45;53.58;98911.33;252766;1151;114630;-67
2021/03/17 12:45:19;;;;;;;15.58;9.80;;;;;;;7.25;53.74;98909.69;252126;1145;114949;-68
2021/03/17 12:50:24;;;;;;;13.98;9.10;;;;;;;7.10;53.64;98919.27;252471;1150;114717;-68
2021/03/17 12:55:27;;;;;;;15.03;8.05;;;;;;;6.98;53.74;98922.50;252323;1145;115194;-69
2021/03/17 13:00:30;;;;;;;14.28;9.38;;;;;;;6.91;54.12;98926.39;252262;1150;115486;-69
2021/03/17 13:05:32;;;;;;;13.23;8.75;;;;;;;6.86;53.66;98918.66;252040;1146;115367;-66
2021/03/17 13:10:35;;;;;;;15.20;8.53;;;;;;;6.82;54.17;98927.68;252439;1151;115160;-65
2021/03/17 13:15:37;;;;;;;11.05;7.85;;;;;;;6.80;53.72;98927.77;252561;1144;115055;-64
2021/03/17 13:20:41;;;;;;;12.83;8.30;;;;;;;6.80;54.14;98933.05;252569;1151;114669;-65
2021/03/17 13:25:44;;;;;;;13.20;7.40;;;;;;;6.77;54.48;98929.70;252710;1144;114873;-65
2021/03/17 13:30:48;;;;;;;13.25;7.23;;;;;;;6.72;54.41;98931.70;252563;1151;115632;-65
2021/03/17 13:35:51;;;;;;;13.87;8.30;;;;;;;6.71;53.73;98946.71;252360;1144;115252;-63
2021/03/17 13:40:53;;;;;;;22.18;11.63;;;;;;;7.15;55.54;98946.34;252510;1151;114549;-63
2021/03/17 13:46:02;;;;;;;15.58;8.20;;;;;;;7.10;53.69;98941.28;252217;1146;116222;-63
2021/03/17 13:51:07;;;;;;;15.57;8.47;;;;;;;7.17;53.66;98948.89;252715;1151;114539;-64
2021/03/17 13:56:09;;;;;;;14.68;8.63;;;;;;;7.04;53.40;98949.52;252738;1144;114514;-64
2021/03/17 14:01:12;;;;;;;15.13;8.35;;;;;;;6.88;53.59;98962.63;252727;1150;114660;-64
2021/03/17 14:06:14;;;;;;;16.75;9.08;;;;;;;6.85;54.03;98961.92;252709;1144;114404;-64
2021/03/17 14:11:17;;;;;;;15.48;8.85;;;;;;;6.78;53.88;98971.94;252763;1151;115960;-65
2021/03/17 14:16:19;;;;;;;12.48;8.70;;;;;;;6.73;53.49;98960.73;252768;1144;114377;-64
2021/03/17 14:21:21;;;;;;;14.33;9.00;;;;;;;6.67;53.65;98968.95;252356;1151;114488;-64
2021/03/17 14:26:24;;;;;;;16.48;9.08;;;;;;;6.60;54.03;98971.02;252735;1144;114443;-64
2021/03/17 14:31:29;;;;;;;14.40;9.28;;;;;;;6.57;53.24;98972.95;252687;1150;114639;-74
2021/03/17 14:36:32;;;;;;;17.88;10.13;;;;;;;6.55;53.81;98973.01;252119;1146;115134;-74
2021/03/17 14:41:43;;;;;;;17.20;9.60;;;;;;;6.51;53.25;98979.38;251883;1152;115054;-74
2021/03/17 14:47:31;;;;;;;17.20;9.88;;;;;;;6.53;54.29;98980.17;252024;1146;114998;-73
2021/03/17 14:52:39;;;;;;;19.67;10.87;;;;;;;6.54;53.92;98981.03;252260;1151;114764;-71
2021/03/17 14:58:13;;;;;;;;;;;;;;;;;;;;;
2021/03/17 15:03:30;;;;;;;16.53;10.23;;;;;;;6.55;54.40;98980.09;252098;1151;115217;-71
2021/03/17 15:08:37;;;;;;;15.40;9.93;;;;;;;6.56;54.11;98984.47;252188;1146;114875;-73
2021/03/17 15:13:47;;;;;;;16.77;9.50;;;;;;;6.54;53.98;98986.31;252173;1151;115136;-72
2021/03/17 15:18:57;;;;;;;16.68;9.60;;;;;;;6.53;54.46;98989.90;251943;1146;114628;-72
2021/03/17 15:24:13;;;;;;;14.28;9.13;;;;;;;6.51;54.01;98995.23;252255;1151;114735;-72
2021/03/17 15:29:26;;;;;;;12.63;8.65;;;;;;;6.47;54.23;99000.75;252143;1151;114932;-75
2021/03/17 15:34:33;;;;;;;13.65;9.68;;;;;;;6.42;54.79;99000.97;252638;1144;114666;-73
2021/03/17 15:39:54;;;;;;;15.20;9.30;;;;;;;6.37;54.97;98998.52;251949;1151;115006;-73
2021/03/17 15:45:14;;;;;;;;;;;;;;;;;;;;;
2021/03/17 15:50:37;;;;;;;14.45;9.95;;;;;;;6.33;54.75;99007.52;252363;1151;118438;-72
2021/03/17 15:55:56;;;;;;;17.40;10.07;;;;;;;6.33;54.87;99011.95;251830;1146;114564;-75
2021/03/17 16:01:00;;;;;;;19.35;10.98;;;;;;;6.32;54.57;99023.45;252197;1151;115384;-70
2021/03/17 16:06:26;;;;;;;17.93;10.80;;;;;;;6.32;55.28;99024.31;252329;1144;115118;-76
2021/03/17 16:12:16;;;;;;;21.03;10.35;;;;;;;6.32;55.28;99031.39;251821;1146;114471;-78
2021/03/17 16:18:31;;;;;;;17.20;10.30;;;;;;;6.30;55.24;99036.72;250761;1149;115487;-76
2021/03/17 16:24:10;;;;;;;19.63;10.40;;;;;;;6.31;54.87;99049.00;251155;1154;115415;-73
2021/03/17 16:29:14;;;;;;;16.67;10.03;;;;;;;6.29;54.62;99056.16;251340;1148;115471;-72
2021/03/17 16:34:17;;;;;;;15.70;9.80;;;;;;;6.27;55.52;99057.14;251756;1154;114836;-73
2021/03/17 16:39:22;;;;;;;;;;;;;;;6.25;55.20;99057.23;251914;1147;114763;-73
2021/03/17 16:44:29;;;;;;;15.90;10.70;;;;;;;6.19;55.38;99073.34;251807;1154;101937;-74
2021/03/17 16:49:38;;;;;;;18.60;11.23;;;;;;;6.16;55.15;99081.41;252346;1143;114489;-73
2021/03/17 16:54:48;;;;;;;20.37;11.77;;;;;;;6.14;56.21;99091.16;252397;1149;114932;-70
2021/03/17 16:59:50;;;;;;;21.20;13.20;;;;;;;6.12;56.06;99093.89;252647;1144;114695;-69
2021/03/17 17:04:53;;;;;;;22.68;13.85;;;;;;;6.09;55.82;99096.66;252660;1151;114983;-71
2021/03/17 17:09:56;;;;;;;21.55;14.23;;;;;;;6.07;55.91;99105.56;251915;1144;114624;-73
2021/03/17 17:15:02;;;;;;;22.23;14.23;;;;;;;6.05;55.77;99105.64;251780;1151;115085;-72
2021/03/17 17:20:09;;;;;;;24.97;15.37;;;;;;;6.04;56.57;99103.91;251964;1145;114888;-72
2021/03/17 17:25:14;;;;;;;22.63;14.18;;;;;;;6.03;56.41;99106.63;252130;1152;114905;-70
2021/03/17 17:30:23;;;;;;;23.10;14.97;;;;;;;6.01;56.31;99111.10;252193;1145;114786;-71
2021/03/17 17:35:34;;;;;;;28.90;15.55;;;;;;;5.99;56.53;99121.75;252110;1146;114723;-71
2021/03/17 17:40:48;;;;;;;24.57;13.10;;;;;;;5.97;56.75;99128.02;252209;1144;114509;-71
2021/03/17 17:45:51;;;;;;;24.30;13.33;;;;;;;5.97;56.45;99130.66;252570;1150;114729;-70
2021/03/17 17:51:04;;;;;;;25.28;14.65;;;;;;;5.96;55.94;99131.58;252343;1144;114730;-70
2021/03/17 17:56:22;;;;;;;22.23;13.63;;;;;;;5.95;56.06;99119.31;252407;1150;114705;-70
2021/03/17 18:01:31;;;;;;;25.68;13.90;;;;;;;5.90;56.38;99124.73;252222;1144;115954;-71
2021/03/17 18:07:00;;;;;;;30.25;17.83;;;;;;;5.88;56.50;99129.23;252104;1151;115054;-72
2021/03/17 18:12:09;;;;;;;25.20;15.83;;;;;;;5.90;56.84;99149.36;252082;1144;114790;-71
2021/03/17 18:17:28;;;;;;;24.03;15.45;;;;;;;5.89;56.42;99139.72;251964;1151;115125;-70
2021/03/17 18:23:09;;;;;;;26.60;16.93;;;;;;;5.86;56.77;99145.13;252415;1145;114776;-70
2021/03/17 18:28:28;;;;;;;27.10;15.25;;;;;;;5.85;56.93;99140.78;252563;1150;114759;-70
2021/03/17 18:33:40;;;;;;;27.63;15.33;;;;;;;5.84;57.04;99136.43;251733;1153;114968;-71
2021/03/17 18:38:48;;;;;;;21.88;14.95;;;;;;;5.86;56.60;99141.63;251848;1146;115312;-70
2021/03/17 18:44:11;;;;;;;25.98;15.83;;;;;;;5.85;56.69;99140.78;252142;1151;114882;-71
2021/03/17 18:49:27;;;;;;;23.03;14.93;;;;;;;5.83;57.17;99139.97;252184;1146;114706;-70
2021/03/17 18:54:48;;;;;;;22.30;14.27;;;;;;;5.83;56.46;99145.25;251982;1153;115592;-69
2021/03/17 19:00:05;;;;;;;26.43;15.45;;;;;;;5.81;56.45;99147.12;252079;1144;114928;-70
2021/03/17 19:05:33;;;;;;;25.95;16.55;;;;;;;5.78;56.68;99147.23;252066;1151;115005;-70
2021/03/17 19:11:30;;;;;;;26.53;16.73;;;;;;;5.81;56.65;99146.23;252085;1144;116113;-70
2021/03/17 19:16:48;;;;;;;24.40;14.75;;;;;;;5.78;56.86;99151.66;252412;1151;115388;-71
2021/03/17 19:22:04;;;;;;;23.80;14.50;;;;;;;5.77;56.77;99152.56;252290;1144;114357;-70
2021/03/17 19:27:11;;;;;;;25.23;15.15;;;;;;;5.72;57.06;99152.77;252585;1151;114978;-70
2021/03/17 19:32:33;;;;;;;22.63;14.03;;;;;;;5.69;57.52;99155.52;252101;1144;115636;-70
2021/03/17 19:37:41;;;;;;;24.53;14.78;;;;;;;5.62;57.67;99161.97;252604;1150;115195;-73
2021/03/17 19:42:57;;;;;;;23.43;14.13;;;;;;;5.56;57.56;99162.20;252254;1144;114718;-74
2021/03/17 19:48:04;;;;;;;22.93;14.58;;;;;;;5.52;57.78;99163.26;251963;1152;115211;-74
2021/03/17 19:53:16;;;;;;;24.65;14.20;;;;;;;5.48;57.76;99165.16;252339;1144;114601;-74
2021/03/17 19:58:45;;;;;;;24.23;13.88;;;;;;;5.48;58.54;99166.95;252629;1151;114760;-74
2021/03/17 20:04:07;;;;;;;23.43;14.23;;;;;;;5.41;57.75;99172.45;252590;1144;115158;-74
2021/03/17 20:09:20;;;;;;;25.25;13.85;;;;;;;5.33;58.12;99173.66;251078;1144;115266;-77
2021/03/17 20:14:32;;;;;;;23.65;14.38;;;;;;;5.20;58.32;99170.66;251666;1144;115069;-75
2021/03/17 20:19:35;;;;;;;24.27;13.67;;;;;;;5.09;58.51;99175.45;252528;1150;114940;-75
2021/03/17 20:24:48;;;;;;;24.43;15.10;;;;;;;5.01;58.91;99178.38;252654;1144;114722;-75
2021/03/17 20:29:55;;;;;;;26.50;15.33;;;;;;;4.90;58.86;99178.78;252408;1151;115024;-80
2021/03/17 20:35:17;;;;;;;26.10;16.05;;;;;;;4.82;59.17;99172.05;252714;1143;114494;-73
2021/03/17 20:40:39;;;;;;;29.35;16.25;;;;;;;4.76;59.64;99167.03;252208;1144;114944;-73
2021/03/17 20:45:47;;;;;;;27.23;15.87;;;;;;;4.72;60.04;99168.89;252364;1144;115282;-70
2021/03/17 20:50:50;;;;;;;26.63;15.40;;;;;;;4.77;60.14;99164.33;252265;1151;114779;-74
2021/03/17 20:55:53;;;;;;;33.63;17.90;;;;;;;4.82;60.34;99164.15;252365;1144;116144;-74
2021/03/17 21:01:07;;;;;;;47.73;29.90;;;;;;;4.86;60.12;99156.09;252756;1151;114936;-72
2021/03/17 21:06:17;;;;;;;26.05;16.65;;;;;;;4.89;60.23;99153.34;252357;1146;115585;-73
2021/03/17 21:11:30;;;;;;;29.38;15.50;;;;;;;4.89;60.06;99165.64;252347;1151;114667;-73
2021/03/17 21:16:35;;;;;;;24.90;15.27;;;;;;;4.86;60.19;99164.00;252613;1144;115135;-76
2021/03/17 21:21:44;;;;;;;25.68;14.68;;;;;;;4.85;60.42;99162.25;252555;1150;114373;-76
2021/03/17 21:26:55;;;;;;;26.63;14.60;;;;;;;4.83;60.41;99156.20;251465;1146;115319;-77
2021/03/17 21:31:59;;;;;;;24.90;13.80;;;;;;;4.81;60.77;99165.93;252411;1151;114304;-73
2021/03/17 21:37:20;;;;;;;23.65;13.93;;;;;;;4.80;60.71;99176.55;251951;1144;114725;-73
2021/03/17 21:42:34;;;;;;;21.98;14.13;;;;;;;4.76;60.49;99167.89;251181;1152;114936;-83
2021/03/17 21:54:23;;;;;;;22.25;13.38;;;;;;;4.76;60.68;99167.03;251324;1144;114934;-84
2021/03/17 21:59:51;;;;;;;28.47;14.63;;;;;;;4.74;60.55;99162.66;251916;1146;114324;-78
2021/03/17 22:05:51;;;;;;;20.83;12.48;;;;;;;4.73;60.18;99158.31;251713;1144;114701;-76
2021/03/17 22:10:53;;;;;;;22.40;13.03;;;;;;;4.74;60.76;99164.44;252237;1152;114998;-70
2021/03/17 22:15:56;;;;;;;22.45;13.13;;;;;;;4.74;60.54;99161.80;252203;1146;114891;-76
2021/03/17 22:21:04;;;;;;;20.83;12.67;;;;;;;4.75;60.67;99163.51;252246;1152;114639;-76
2021/03/17 22:26:07;;;;;;;21.83;13.07;;;;;;;4.73;60.83;99158.31;251249;1144;114396;-70
2021/03/17 22:31:10;;;;;;;20.75;12.00;;;;;;;4.78;60.94;99154.64;252088;1152;114648;-70
2021/03/17 22:36:13;;;;;;;20.40;12.43;;;;;;;4.86;60.57;99148.18;252264;1144;114807;-70
2021/03/17 22:41:15;;;;;;;19.13;11.85;;;;;;;4.92;60.54;99144.44;252349;1152;115092;-70
2021/03/17 22:46:17;;;;;;;19.53;11.25;;;;;;;4.94;60.34;99140.83;251784;1144;114384;-76
2021/03/17 22:51:21;;;;;;;21.03;11.35;;;;;;;4.94;60.59;99140.83;252224;1153;115261;-76
2021/03/17 22:56:23;;;;;;;17.10;10.58;;;;;;;4.94;60.77;99140.83;252185;1146;115188;-70
2021/03/17 23:01:25;;;;;;;15.53;9.80;;;;;;;4.93;60.23;99138.27;251945;1152;114329;-77
2021/03/17 23:06:28;;;;;;;19.10;11.23;;;;;;;4.90;60.65;99139.23;250943;1146;114482;-77
2021/03/17 23:11:34;;;;;;;19.87;10.63;;;;;;;4.89;60.62;99131.36;251949;1152;114831;-70
2021/03/17 23:16:38;;;;;;;18.83;10.23;;;;;;;4.86;60.57;99136.78;252302;1144;114724;-72
2021/03/17 23:21:41;;;;;;;15.63;8.90;;;;;;;4.83;60.11;99137.74;251212;1152;114917;-71
2021/03/17 23:27:08;;;;;;;17.80;9.48;;;;;;;4.77;60.65;99140.60;252308;1144;114703;-70
2021/03/17 23:32:11;;;;;;;15.73;9.18;;;;;;;4.73;60.58;99134.58;252125;1145;114531;-76
2021/03/17 23:37:14;;;;;;;14.60;8.70;;;;;;;4.74;60.80;99138.08;252013;1146;114740;-76
2021/03/17 23:42:26;;;;;;;15.78;8.65;;;;;;;4.71;60.07;99148.73;250484;1145;115266;-69